Terminal Aerodrome Forecast
Issued by NWS

Current Version | Previous Version | Text Only | Print | Product List | Glossary On
Versions: 1 2 3 4 5 6 7 8 9 10 11 12 13 14 15 16 17 18
000
FTUS44 KLIX 032335
TAFMSY
TAF
KMSY 032335Z 0400/0424 15005KT P6SM SCT025 BKN150 BKN250
     FM040100 12004KT P6SM BKN250
     FM041200 16007KT P6SM SCT020 BKN250
     FM041700 18008KT P6SM VCSH SCT035 BKN250=

USA.gov is the U.S. government's official web portal to all federal, state and local government web resources and services.